Du har inga inställningar för hoppväder.nu

Hoppväder.nu

Senast uppdaterat 07:54

UTC-tid

2022-08-15 kl. 05:54


Sol och måne

Solen går upp 5:40 och går ner 21:36 (beräknade cirkatider)
Nästa fullmåne blir om 26 dagar (2022-09-10)

METAR

ESMK (Everöd)
(34 minuter sedan)
ESMK 150520Z 29003KT CAVOK 16/16 Q1009=



ESMS (Malmö)
(34 minuter sedan)
ESMS 150520Z 10007KT CAVOK 21/18 Q1008=



ESMX (Växjö)
(34 minuter sedan)
ESMX 150520Z 05005KT 030V100 9999 BKN038 19/17 Q1011=



ESDF (Ronneby)
(34 minuter sedan)
ESDF 150520Z 06008KT CAVOK 20/19 Q1010=



EKRN (Rønne, Bornholm)
(34 minuter sedan)
EKRN 150520Z 11009KT CAVOK 22/19 Q1008=



TAF

ESMK (Everöd)
(42 minuter sedan)
ESMK 150512Z 1506/1515 VRB02KT CAVOK PROB40 1506/1507 BKN005 TEMPO 1510/1515 SCT040CB=



ESMS (Malmö)
(44 minuter sedan)
ESMS 150510Z 1506/1606 12010KT CAVOK TEMPO 1510/1516 SCT040CB PROB40 1523/1606 VRB15G25KT 3000 +TSRA SCT040CB=



ESMX (Växjö)
(24 minuter sedan)
ESMX 150530Z 1506/1515 07005KT 9999 SCT040=



ESDF (Ronneby)
(24 minuter sedan)
ESDF 150530Z 1506/1515 06008KT CAVOK RMK MIL=



EKRN (Rønne, Bornholm)
(52 minuter sedan)
EKRN 150502Z 1506/1515 11012KT 9999 FEW080 SCT140=





Kodnycklar till TAF och METAR






LHP

(Everöd är område se11e i Hela Område 1)

Översikt

ÖVERSIKT FÖR OMRÅDE se1 UTFÄRDAD 150309

GÄLLANDE DEN 15 AUGUSTI 2022 MELLAN 04 OCH 12 UTC


Väderöversikt
Se väderöversikt för område se2 + se3
Sikt under 5 kilometer eller molnbas under 1000 fot
04-08UTC: I hela området

Måttlig eller svår isbildning
Väntas inte förekomma under perioden
Måttlig eller svår turbulens
Väntas inte förekomma under perioden


Hela Område 1

PROGNOS FÖR OMRÅDE se11 UTFÄRDAD 150309
GÄLLANDE DEN 15 AUGUSTI 2022 MELLAN 04 OCH 12 UTC


Måttlig eller svår turbulens
04-12UTC: I hela området: Väntas inte förekomma under perioden

Måttlig eller svår isbildning
04-12UTC: I hela området: Väntas inte förekomma under perioden

Sikt/Väder/Moln
04-06UTC: Område se11a,se11b: Sikt >8km. Molnbas >4000ft.
Område se11e,se11d,se11c: Sikt <0.8km - >8km i dis, dimma. Molnbas <500ft - >4000ft.
Område se11i,se11h,se11g,se11f: Sikt >8km, lokalt <0.8km i dis, dimma. Molnbas >4000ft, lokalt <500ft.

06-08UTC: Område se11a,se11c,se11b,se11h,se11f: Sikt >8km. Molnbas 500ft - >4000ft.
Område se11i,se11g: Sikt >8km. Molnbas >4000ft, lokalt 2000ft - 4000ft.
Område se11e,se11d: Sikt >8km. Molnbas >4000ft, lokalt 500ft - 1000ft.

08-10UTC: Område se11e,se11d,se11c,se11b: Sikt >8km, lokalt regnskurar. Molnbas >4000ft, lokalt 2000ft - 4000ft.
Område se11a,se11i,se11h,se11g,se11f: Sikt >8km i regnskurar. Molnbas 2000ft - >4000ft.

10-12UTC: I hela området: Sikt >8km, lokalt 3km - 5km i regnskurar, åska. Molnbas >4000ft, lokalt 2000ft - 4000ft.

Molnöversida
04-08UTC: I hela området: Ingen prognos
08-12UTC: I hela området: Molnöversida > FL125.

CB/TCU Moln
04-08UTC: I hela området: Väntas inte förekomma under perioden
08-12UTC: I hela området: isol cb

Nollgradersisoterm
04-12UTC: I hela området: Noll grader FL110 - > FL125.

Vind vid marken
04-06UTC: Område se11b: O/4-16 knop, byar upp till 21 knop.
Område se11i: SO/3-13 knop, byar upp till 17 knop.
Område se11f: NO-O/0-9 knop, byar upp till 14 knop.
Område se11h: O/3-13 knop, byar upp till 18 knop.
Område se11g: O-SO/4-15 knop, byar upp till 20 knop.
Område se11d: O/2-14 knop, byar upp till 19 knop.
Område se11a: O/3-16 knop, byar upp till 21 knop.
Område se11c: O/5-13 knop, byar upp till 20 knop.
Område se11e: NO-O/0-8 knop, byar upp till 16 knop.

06-08UTC: Område se11i: O-SO/5-14 knop, byar upp till 18 knop.
Område se11e: O-SO/4-10 knop, byar upp till 18 knop.
Område se11d: O-SO/4-12 knop, byar upp till 18 knop.
Område se11c: O/7-17 knop, byar upp till 21 knop.
Område se11f: O-SO/5-11 knop, byar upp till 19 knop.
Område se11a: O-SO/4-17 knop, byar upp till 23 knop.
Område se11b: O-SO/6-16 knop, byar upp till 22 knop.
Område se11h: O-SO/5-13 knop, byar upp till 19 knop.
Område se11g: O-SO/8-17 knop, byar upp till 21 knop.

08-10UTC: Område se11b: O-SO/7-15 knop, byar upp till 22 knop.
Område se11f: O-SO/4-11 knop, byar upp till 21 knop.
Område se11h: O/4-12 knop, byar upp till 23 knop.
Område se11c,se11g: O-SO/7-16 knop, byar upp till 23 knop.
Område se11d: O-SO/5-14 knop, byar upp till 23 knop.
Område se11e: O-SO/5-11 knop, byar upp till 22 knop.
Område se11a: O-SO/4-14 knop, byar upp till 20 knop.
Område se11i: O/2-12 knop, byar upp till 19 knop.

10-12UTC: Område se11f: O-SO/5-11 knop, byar upp till 20 knop.
Område se11h: NO-O/4-13 knop, byar upp till 21 knop.
Område se11e: O-SO/4-9 knop, byar upp till 20 knop.
Område se11c: SO/7-15 knop, byar upp till 21 knop.
Område se11a: SO/5-14 knop, byar upp till 23 knop.
Område se11d: O-SO/5-11 knop, byar upp till 21 knop.
Område se11b: SO/6-14 knop, byar upp till 21 knop.
Område se11i: O/0-15 knop, byar upp till 22 knop.
Område se11g: O-SO/7-14 knop, byar upp till 21 knop.


Genomsnittlig vind och temperatur för området

2000ft:
04-06UTC: 140/15kt +19.
06-08UTC: 140/14kt +19.
08-10UTC: 130/15kt +19.
10-12UTC: 120/16kt +19.

FL050:
04-08UTC: 140/19kt +13.
08-10UTC: 140/20kt +13.
10-12UTC: 140/21kt +13.

FL100:
04-06UTC: 130/16kt +2.
06-10UTC: 140/18kt +2.
10-12UTC: 140/17kt +2.

Lägsta QNH
04-08UTC: I hela området: 1006 hPa
08-12UTC: I hela området: 1007 hPa

OBS! endast utbredd måttlig eller svår isbildning och turbulens prognostiseras i LLF.
Avsaknad av isbildning och turbulens i prognosen utesluter inte förekomst av lätt isbildning och turbulens.
För indikation på lätt isbildning, var vänlig kontrollera om prognosen för molntopp ligger högre än nollgradersisotermen.
Förekomst av TCU eller CB medför alltid en risk för måttlig eller svår isbildning och turbulens även om det inte framgår explicit av prognosen.








Spotting

Hur fungerar spotthjälpen och Vindkartan?

Markvind är ca 0-4 m/s med byar på 8 m/s.
Vind på 600 m ca 8 m/s.
Vind på 1500 m ca 10 m/s.
Vind på 3000 m ca 8 m/s.
KalleDavid flyger ca 35 m/s över marken på finalen.
Du driver ca 370 m bakåt i frifall. (494 m)
Lämplig spot är 3 sekunder eller 106 m efter gropen.
(6 s eller 213 m)
För små grupper eller ensamhoppare bör man vänta 4-6 sekunder mellan grupperna.
För större grupper bör man vänta 8-10 sekunder mellan grupperna.


Vindkartan

Senast uppdaterad 07:54




All data kommer från LFV.se